• Join FlightAware (Why Join?)
  • Login
  • US Flag 
Rudolph Flight #1: Arrived! 
04:36PM EST


 

Airport Tracker/Info


-or-


 

Live Flight TrackerFlight Track Log ✈ AFR3974 ✈ 23-May-2013 ✈ TFFF / FDF - SOCA / CAY

Flight Track Log - Related Links

Times and Time Zones

All times are in EDT time to prevent confusion due to time zone crossing. See the AFR3974 flight status page for this flight to view local times or setup timezone preferences in your user account.

Time Position Orientation Groundspeed Altitude Reporting Facility
EDT Latitude Longitude Course Direction KTS MPH feet Rate Location/Type
04:35PM 14.4860 -60.8400 137° Southeast 270 311 6,800  Level FlightAware
04:36PM 14.4640 -60.8190 137° Southeast 272 313 7,900 2,400 Climbing FlightAware
04:36PM 14.4300 -60.7860 137° Southeast 283 326 9,200 1,920 Climbing FlightAware
04:37PM 14.4140 -60.7700 136° Southeast 290 334 9,700 1,500 Climbing FlightAware
04:37PM 14.3730 -60.7300 137° Southeast 313 360 10,600 1,020 Climbing FlightAware
04:38PM 14.3330 -60.6920 137° Southeast 348 400 11,200 1,500 Climbing FlightAware
04:39PM 14.2730 -60.6340 137° Southeast 355 409 12,900 1,320 Climbing FlightAware
04:40PM 14.2180 -60.5790 136° Southeast 358 412 13,400 1,860 Climbing FlightAware
04:40PM 14.1500 -60.5150 138° Southeast 370 426 16,000 2,880 Climbing FlightAware
04:41PM 14.0850 -60.4520 137° Southeast 366 421 18,000 1,920 Climbing FlightAware
04:42PM 14.0300 -60.4000 137° Southeast 373 429 19,100 1,440 Climbing FlightAware
04:43PM 13.9570 -60.3280 136° Southeast 384 442 20,400 1,260 Climbing FlightAware
04:44PM 13.9150 -60.2880 137° Southeast 391 450 21,100 1,260 Climbing FlightAware
04:44PM 13.8440 -60.2200 137° Southeast 396 456 22,200 1,200 Climbing FlightAware
04:45PM 13.7960 -60.1740 137° Southeast 404 465 22,800 1,020 Climbing FlightAware
04:46PM 13.7260 -60.1070 137° Southeast 410 472 23,700 1,020 Climbing FlightAware
04:46PM 13.6710 -60.0540 137° Southeast 418 481 24,300 780 Climbing FlightAware
04:47PM 13.6240 -60.0090 137° Southeast 427 491 24,700 720 Climbing FlightAware
04:48PM 13.5550 -59.9420 137° Southeast 435 501 25,300 900 Climbing FlightAware
04:48PM 13.4930 -59.8830 137° Southeast 436 502 26,100 900 Climbing FlightAware
04:49PM 13.4380 -59.8310 137° Southeast 436 502 26,700 780 Climbing FlightAware
04:50PM 13.3510 -59.7480 137° Southeast 443 510 27,400 780 Climbing FlightAware
04:51PM 13.2930 -59.6920 137° Southeast 447 514 27,900 720 Climbing FlightAware
04:51PM 13.2310 -59.6330 137° Southeast 452 520 28,400 660 Climbing FlightAware
04:52PM 13.1700 -59.5740 137° Southeast 456 525 28,900 480 Climbing FlightAware
04:53PM 13.0910 -59.4990 137° Southeast 460 529 29,200 120 Climbing FlightAware
04:54PM 13.0250 -59.4360 137° Southeast 460 529 29,200  Level FlightAware
04:55PM 12.9720 -59.3850 137° Southeast 460 529 29,200  Level FlightAware
04:55PM 12.9190 -59.3340 137° Southeast 460 529 29,200  Level FlightAware
04:56PM 12.8660 -59.2840 137° Southeast 460 529 29,200  Level FlightAware
04:57PM 12.8130 -59.2330 137° Southeast 460 529 29,200  Level FlightAware
04:59PM 12.6512 -59.0892 139° Southeast  Level Estimated
05:00PM 12.5683 -59.0156 139° Southeast  Level Estimated
05:01PM 12.4853 -58.9420 139° Southeast  Level Estimated
05:02PM 12.4023 -58.8684 139° Southeast  Level Estimated
05:03PM 12.3192 -58.7949 139° Southeast  Level Estimated
05:04PM 12.2361 -58.7215 139° Southeast  Level Estimated
05:05PM 12.1531 -58.6480 139° Southeast  Level Estimated
05:06PM 12.0700 -58.5747 139° Southeast  Level Estimated
05:07PM 11.9868 -58.5013 139° Southeast  Level Estimated
05:08PM 11.9037 -58.4281 139° Southeast  Level Estimated
05:09PM 11.8205 -58.3548 139° Southeast  Level Estimated
05:10PM 11.7374 -58.2816 139° Southeast  Level Estimated
05:11PM 11.6542 -58.2085 139° Southeast  Level Estimated
05:12PM 11.5710 -58.1354 139° Southeast  Level Estimated
05:13PM 11.4878 -58.0623 139° Southeast  Level Estimated
05:14PM 11.4045 -57.9893 139° Southeast  Level Estimated
05:15PM 11.3212 -57.9163 139° Southeast  Level Estimated
05:16PM 11.2380 -57.8434 139° Southeast  Level Estimated
05:17PM 11.1546 -57.7705 139° Southeast  Level Estimated
05:18PM 11.0713 -57.6977 139° Southeast  Level Estimated
05:19PM 10.9880 -57.6249 139° Southeast  Level Estimated
05:20PM 10.9046 -57.5521 139° Southeast  Level Estimated
05:21PM 10.8213 -57.4794 139° Southeast  Level Estimated
05:22PM 10.7379 -57.4067 139° Southeast  Level Estimated
05:23PM 10.6545 -57.3340 139° Southeast  Level Estimated
05:24PM 10.5711 -57.2614 139° Southeast  Level Estimated
05:25PM 10.4876 -57.1889 139° Southeast  Level Estimated
05:26PM 10.4042 -57.1163 139° Southeast  Level Estimated
05:27PM 10.3207 -57.0439 139° Southeast  Level Estimated
05:28PM 10.2372 -56.9714 140° Southeast  Level Estimated
05:29PM 10.1537 -56.8990 140° Southeast  Level Estimated
05:30PM 10.0702 -56.8266 140° Southeast  Level Estimated
05:31PM 9.9867 -56.7543 140° Southeast  Level Estimated
05:32PM 9.9031 -56.6820 140° Southeast  Level Estimated
05:33PM 9.8195 -56.6097 140° Southeast  Level Estimated
05:34PM 9.7360 -56.5375 140° Southeast  Level Estimated
05:35PM 9.6524 -56.4653 140° Southeast  Level Estimated
05:36PM 9.5688 -56.3932 140° Southeast  Level Estimated
05:37PM 9.4851 -56.3210 140° Southeast  Level Estimated
05:38PM 9.4015 -56.2490 140° Southeast  Level Estimated
05:39PM 9.3178 -56.1769 140° Southeast  Level Estimated
05:40PM 9.2341 -56.1049 140° Southeast  Level Estimated
05:41PM 9.1505 -56.0329 140° Southeast  Level Estimated
05:42PM 9.0668 -55.9610 140° Southeast  Level Estimated
05:43PM 8.9831 -55.8891 140° Southeast  Level Estimated
05:44PM 8.8993 -55.8172 140° Southeast  Level Estimated
05:45PM 8.8156 -55.7453 140° Southeast  Level Estimated
05:46PM 8.7318 -55.6735 140° Southeast  Level Estimated
05:47PM 8.6481 -55.6018 140° Southeast  Level Estimated
05:48PM 8.5643 -55.5300 140° Southeast  Level Estimated
05:49PM 8.4805 -55.4583 140° Southeast  Level Estimated
05:50PM 8.3967 -55.3866 140° Southeast  Level Estimated
05:51PM 8.3129 -55.3149 140° Southeast  Level Estimated
05:52PM 8.2290 -55.2433 140° Southeast  Level Estimated
05:53PM 8.1452 -55.1717 140° Southeast  Level Estimated
05:54PM 8.0613 -55.1002 140° Southeast  Level Estimated
05:55PM 7.9775 -55.0286 140° Southeast  Level Estimated
05:56PM 7.8936 -54.9571 140° Southeast  Level Estimated
05:57PM 7.8097 -54.8857 140° Southeast  Level Estimated
05:58PM 7.7258 -54.8142 140° Southeast  Level Estimated
05:59PM 7.6419 -54.7428 140° Southeast  Level Estimated
06:00PM 7.5579 -54.6714 140° Southeast  Level Estimated
06:01PM 7.4740 -54.6001 140° Southeast  Level Estimated
06:02PM 7.3900 -54.5287 140° Southeast  Level Estimated
06:03PM 7.3061 -54.4574 140° Southeast  Level Estimated
06:04PM 7.2221 -54.3861 140° Southeast  Level Estimated
06:05PM 7.1381 -54.3149 140° Southeast  Level Estimated
06:06PM 7.0541 -54.2436 140° Southeast  Level Estimated
06:07PM 6.9701 -54.1724 140° Southeast  Level Estimated
06:08PM 6.8861 -54.1013 140° Southeast  Level Estimated
06:09PM 6.8021 -54.0301 140° Southeast  Level Estimated
06:10PM 6.7180 -53.9590 140° Southeast  Level Estimated
06:11PM 6.6340 -53.8879 140° Southeast  Level Estimated
06:12PM 6.5499 -53.8168 140° Southeast  Level Estimated
06:13PM 6.4658 -53.7458 140° Southeast  Level Estimated
06:14PM 6.3818 -53.6747 140° Southeast  Level Estimated
06:15PM 6.2977 -53.6037 140° Southeast  Level Estimated
06:16PM 6.2136 -53.5327 140° Southeast  Level Estimated
06:17PM 6.1294 -53.4618 140° Southeast  Level Estimated
06:18PM 6.0453 -53.3908 140° Southeast  Level Estimated
06:19PM 5.9612 -53.3199 140° Southeast  Level Estimated
06:20PM 5.8771 -53.2490 140° Southeast  Level Estimated
06:21PM 5.7929 -53.1781 140° Southeast  Level Estimated
06:22PM 5.7088 -53.1073 140° Southeast  Level Estimated
06:23PM 5.6246 -53.0364 140° Southeast  Level Estimated
06:24PM 5.5404 -52.9656 140° Southeast  Level Estimated
06:25PM 5.4563 -52.8949 140° Southeast  Level Estimated
06:26PM 5.3721 -52.8241 140° Southeast  Level Estimated
06:27PM 5.2879 -52.7533 140° Southeast  Level Estimated
06:28PM 5.2037 -52.6826 140° Southeast  Level Estimated
06:29PM 5.1180 -52.6107 140° Southeast  Level Estimated
06:30PM 5.0323 -52.5387 140° Southeast  Level Estimated
06:31PM 4.9467 -52.4668 140° Southeast  Level Estimated
06:32PM 4.8610 -52.3950 140° Southeast  Level Estimated